sensor_id;sensor_type;location;lat;lon;timestamp;temperature;humidity
39103;DHT22;24847;48.218;16.414;2022-10-04T00:04:29;12.80;99.90
39103;DHT22;24847;48.218;16.414;2022-10-04T00:09:35;12.60;99.90
39103;DHT22;24847;48.218;16.414;2022-10-04T00:14:43;12.70;99.90
39103;DHT22;24847;48.218;16.414;2022-10-04T00:19:48;12.80;99.90
39103;DHT22;24847;48.218;16.414;2022-10-04T00:25:15;12.70;99.90
39103;DHT22;24847;48.218;16.414;2022-10-04T00:30:23;12.70;99.90
39103;DHT22;24847;48.218;16.414;2022-10-04T00:35:46;12.60;99.90
39103;DHT22;24847;48.218;16.414;2022-10-04T00:40:53;12.80;99.90
39103;DHT22;24847;48.218;16.414;2022-10-04T00:46:01;12.70;99.90
39103;DHT22;24847;48.218;16.414;2022-10-04T00:51:22;12.80;99.90
39103;DHT22;24847;48.218;16.414;2022-10-04T00:56:33;12.80;99.90
39103;DHT22;24847;48.218;16.414;2022-10-04T01:01:37;12.90;99.90
39103;DHT22;24847;48.218;16.414;2022-10-04T01:06:42;12.90;99.90
39103;DHT22;24847;48.218;16.414;2022-10-04T01:11:51;12.70;99.90
39103;DHT22;24847;48.218;16.414;2022-10-04T01:16:58;12.70;99.90
39103;DHT22;24847;48.218;16.414;2022-10-04T01:22:11;12.80;99.90
39103;DHT22;24847;48.218;16.414;2022-10-04T01:27:34;12.60;99.90
39103;DHT22;24847;48.218;16.414;2022-10-04T01:32:39;12.70;99.90
39103;DHT22;24847;48.218;16.414;2022-10-04T01:37:45;12.80;99.90
39103;DHT22;24847;48.218;16.414;2022-10-04T01:42:50;12.80;99.90
39103;DHT22;24847;48.218;16.414;2022-10-04T01:47:58;12.70;99.90
39103;DHT22;24847;48.218;16.414;2022-10-04T01:53:12;12.70;99.90
39103;DHT22;24847;48.218;16.414;2022-10-04T01:58:19;12.70;99.90
39103;DHT22;24847;48.218;16.414;2022-10-04T02:03:29;12.80;99.90
39103;DHT22;24847;48.218;16.414;2022-10-04T02:08:37;12.70;99.90
39103;DHT22;24847;48.218;16.414;2022-10-04T02:13:43;12.70;99.90
39103;DHT22;24847;48.218;16.414;2022-10-04T02:18:48;12.60;99.90
39103;DHT22;24847;48.218;16.414;2022-10-04T02:23:52;12.40;99.90
39103;DHT22;24847;48.218;16.414;2022-10-04T02:28:56;12.50;99.90
39103;DHT22;24847;48.218;16.414;2022-10-04T02:33:59;12.50;99.90
39103;DHT22;24847;48.218;16.414;2022-10-04T02:39:03;12.60;99.90
39103;DHT22;24847;48.218;16.414;2022-10-04T02:44:13;12.50;99.90
39103;DHT22;24847;48.218;16.414;2022-10-04T02:49:21;12.30;99.90
39103;DHT22;24847;48.218;16.414;2022-10-04T02:54:34;12.30;99.90
39103;DHT22;24847;48.218;16.414;2022-10-04T02:59:42;12.40;99.90
39103;DHT22;24847;48.218;16.414;2022-10-04T03:04:44;12.50;99.90
39103;DHT22;24847;48.218;16.414;2022-10-04T03:09:47;12.30;99.90
39103;DHT22;24847;48.218;16.414;2022-10-04T03:14:52;12.40;99.90
39103;DHT22;24847;48.218;16.414;2022-10-04T03:19:55;12.40;99.90
39103;DHT22;24847;48.218;16.414;2022-10-04T03:24:58;12.50;99.90
39103;DHT22;24847;48.218;16.414;2022-10-04T03:30:03;12.50;99.90
39103;DHT22;24847;48.218;16.414;2022-10-04T03:35:13;12.40;99.90
39103;DHT22;24847;48.218;16.414;2022-10-04T03:40:23;12.50;99.90
39103;DHT22;24847;48.218;16.414;2022-10-04T03:45:31;12.30;99.90
39103;DHT22;24847;48.218;16.414;2022-10-04T03:50:38;12.30;99.90
39103;DHT22;24847;48.218;16.414;2022-10-04T03:55:46;12.20;99.90
39103;DHT22;24847;48.218;16.414;2022-10-04T04:01:08;12.30;99.90
39103;DHT22;24847;48.218;16.414;2022-10-04T04:06:16;12.10;99.90
39103;DHT22;24847;48.218;16.414;2022-10-04T04:11:22;12.20;99.90
39103;DHT22;24847;48.218;16.414;2022-10-04T04:16:29;12.30;99.90
39103;DHT22;24847;48.218;16.414;2022-10-04T04:21:32;12.20;99.90
39103;DHT22;24847;48.218;16.414;2022-10-04T04:26:37;12.30;99.90
39103;DHT22;24847;48.218;16.414;2022-10-04T04:31:45;12.20;99.90
39103;DHT22;24847;48.218;16.414;2022-10-04T04:36:57;12.20;99.90
39103;DHT22;24847;48.218;16.414;2022-10-04T04:42:02;12.30;99.90
39103;DHT22;24847;48.218;16.414;2022-10-04T04:47:14;12.30;99.90
39103;DHT22;24847;48.218;16.414;2022-10-04T04:52:26;12.20;99.90
39103;DHT22;24847;48.218;16.414;2022-10-04T04:57:31;12.20;99.90
39103;DHT22;24847;48.218;16.414;2022-10-04T05:02:36;12.20;99.90
39103;DHT22;24847;48.218;16.414;2022-10-04T05:07:38;12.20;99.90
39103;DHT22;24847;48.218;16.414;2022-10-04T05:12:42;12.30;99.90
39103;DHT22;24847;48.218;16.414;2022-10-04T05:17:46;12.30;99.90
39103;DHT22;24847;48.218;16.414;2022-10-04T05:22:49;12.30;99.90
39103;DHT22;24847;48.218;16.414;2022-10-04T05:27:53;12.30;99.90
39103;DHT22;24847;48.218;16.414;2022-10-04T05:33:00;12.20;99.90
39103;DHT22;24847;48.218;16.414;2022-10-04T05:38:06;12.30;99.90
39103;DHT22;24847;48.218;16.414;2022-10-04T05:43:23;12.30;99.90
39103;DHT22;24847;48.218;16.414;2022-10-04T05:48:33;12.20;99.90
39103;DHT22;24847;48.218;16.414;2022-10-04T05:53:37;12.30;99.90
39103;DHT22;24847;48.218;16.414;2022-10-04T05:58:52;12.40;99.90
39103;DHT22;24847;48.218;16.414;2022-10-04T06:04:25;12.40;99.90
39103;DHT22;24847;48.218;16.414;2022-10-04T06:09:47;12.10;99.90
39103;DHT22;24847;48.218;16.414;2022-10-04T06:15:06;12.40;99.90
39103;DHT22;24847;48.218;16.414;2022-10-04T06:20:41;12.50;99.90
39103;DHT22;24847;48.218;16.414;2022-10-04T06:25:53;12.50;99.90
39103;DHT22;24847;48.218;16.414;2022-10-04T06:31:17;12.50;99.90
39103;DHT22;24847;48.218;16.414;2022-10-04T06:42:27;12.60;99.90
39103;DHT22;24847;48.218;16.414;2022-10-04T06:47:59;12.60;99.90
39103;DHT22;24847;48.218;16.414;2022-10-04T06:53:28;12.70;99.90
39103;DHT22;24847;48.218;16.414;2022-10-04T06:58:59;12.70;99.90
39103;DHT22;24847;48.218;16.414;2022-10-04T07:04:20;12.70;99.90
39103;DHT22;24847;48.218;16.414;2022-10-04T07:09:27;12.90;99.90
39103;DHT22;24847;48.218;16.414;2022-10-04T07:14:33;12.80;99.90
39103;DHT22;24847;48.218;16.414;2022-10-04T07:19:40;12.90;99.90
39103;DHT22;24847;48.218;16.414;2022-10-04T07:25:12;12.80;99.90
39103;DHT22;24847;48.218;16.414;2022-10-04T07:30:18;13.00;99.90
39103;DHT22;24847;48.218;16.414;2022-10-04T07:35:27;13.00;99.90
39103;DHT22;24847;48.218;16.414;2022-10-04T07:40:38;13.20;99.90
39103;DHT22;24847;48.218;16.414;2022-10-04T07:45:42;13.40;99.90
39103;DHT22;24847;48.218;16.414;2022-10-04T07:50:48;13.70;99.90
39103;DHT22;24847;48.218;16.414;2022-10-04T07:56:06;13.50;99.90
39103;DHT22;24847;48.218;16.414;2022-10-04T08:01:25;13.60;99.90
39103;DHT22;24847;48.218;16.414;2022-10-04T08:06:33;13.40;99.90
39103;DHT22;24847;48.218;16.414;2022-10-04T08:11:45;13.80;99.90
39103;DHT22;24847;48.218;16.414;2022-10-04T08:17:00;13.90;99.90
39103;DHT22;24847;48.218;16.414;2022-10-04T08:22:21;13.80;99.90
39103;DHT22;24847;48.218;16.414;2022-10-04T08:27:43;14.20;99.90
39103;DHT22;24847;48.218;16.414;2022-10-04T08:33:08;14.30;99.90
39103;DHT22;24847;48.218;16.414;2022-10-04T08:38:32;14.60;99.90
39103;DHT22;24847;48.218;16.414;2022-10-04T08:50:22;14.20;99.90
39103;DHT22;24847;48.218;16.414;2022-10-04T08:56:05;14.60;99.90
39103;DHT22;24847;48.218;16.414;2022-10-04T09:07:18;14.70;99.90
39103;DHT22;24847;48.218;16.414;2022-10-04T09:12:53;14.30;99.90
39103;DHT22;24847;48.218;16.414;2022-10-04T09:18:34;14.60;99.90
39103;DHT22;24847;48.218;16.414;2022-10-04T09:30:09;14.80;99.90
39103;DHT22;24847;48.218;16.414;2022-10-04T09:35:33;14.50;99.90
39103;DHT22;24847;48.218;16.414;2022-10-04T09:46:43;14.70;99.90
39103;DHT22;24847;48.218;16.414;2022-10-04T09:52:12;14.60;99.90
39103;DHT22;24847;48.218;16.414;2022-10-04T09:57:32;14.90;99.90
39103;DHT22;24847;48.218;16.414;2022-10-04T10:03:04;15.10;99.90
39103;DHT22;24847;48.218;16.414;2022-10-04T10:08:35;15.30;99.90
39103;DHT22;24847;48.218;16.414;2022-10-04T10:20:02;16.10;99.90
39103;DHT22;24847;48.218;16.414;2022-10-04T10:25:46;16.20;99.90
39103;DHT22;24847;48.218;16.414;2022-10-04T10:31:18;16.10;99.90
39103;DHT22;24847;48.218;16.414;2022-10-04T10:36:43;16.30;99.90
39103;DHT22;24847;48.218;16.414;2022-10-04T10:42:19;16.10;99.90
39103;DHT22;24847;48.218;16.414;2022-10-04T10:47:39;16.00;99.90
39103;DHT22;24847;48.218;16.414;2022-10-04T10:53:15;15.80;99.90
39103;DHT22;24847;48.218;16.414;2022-10-04T10:58:44;15.90;99.90
39103;DHT22;24847;48.218;16.414;2022-10-04T11:21:59;16.00;99.90
39103;DHT22;24847;48.218;16.414;2022-10-04T11:27:28;16.40;99.90
39103;DHT22;24847;48.218;16.414;2022-10-04T11:39:00;16.00;99.90
39103;DHT22;24847;48.218;16.414;2022-10-04T11:44:31;16.20;99.90
39103;DHT22;24847;48.218;16.414;2022-10-04T11:50:02;16.30;99.90
39103;DHT22;24847;48.218;16.414;2022-10-04T11:55:55;16.80;99.90
39103;DHT22;24847;48.218;16.414;2022-10-04T12:01:54;16.60;99.90
39103;DHT22;24847;48.218;16.414;2022-10-04T12:07:26;16.60;99.90
39103;DHT22;24847;48.218;16.414;2022-10-04T12:24:32;16.50;99.90
39103;DHT22;24847;48.218;16.414;2022-10-04T12:30:17;16.40;99.90
39103;DHT22;24847;48.218;16.414;2022-10-04T12:35:30;16.40;99.90
39103;DHT22;24847;48.218;16.414;2022-10-04T12:40:44;16.30;99.90
39103;DHT22;24847;48.218;16.414;2022-10-04T12:45:59;16.30;99.90
39103;DHT22;24847;48.218;16.414;2022-10-04T12:51:26;16.30;99.90
39103;DHT22;24847;48.218;16.414;2022-10-04T12:56:44;16.10;99.90
39103;DHT22;24847;48.218;16.414;2022-10-04T13:01:55;16.10;99.90
39103;DHT22;24847;48.218;16.414;2022-10-04T13:18:53;16.60;99.90
39103;DHT22;24847;48.218;16.414;2022-10-04T13:24:03;16.60;99.90
39103;DHT22;24847;48.218;16.414;2022-10-04T13:29:21;16.20;99.90
39103;DHT22;24847;48.218;16.414;2022-10-04T13:34:33;16.30;99.90
39103;DHT22;24847;48.218;16.414;2022-10-04T13:39:50;16.00;99.90
39103;DHT22;24847;48.218;16.414;2022-10-04T13:45:25;16.00;99.90
39103;DHT22;24847;48.218;16.414;2022-10-04T13:50:42;16.40;99.90
39103;DHT22;24847;48.218;16.414;2022-10-04T13:56:01;16.40;99.90
39103;DHT22;24847;48.218;16.414;2022-10-04T14:07:40;16.50;99.90
39103;DHT22;24847;48.218;16.414;2022-10-04T14:30:16;16.40;99.90
39103;DHT22;24847;48.218;16.414;2022-10-04T14:35:26;16.30;99.90
39103;DHT22;24847;48.218;16.414;2022-10-04T14:46:13;16.30;99.90
39103;DHT22;24847;48.218;16.414;2022-10-04T14:56:59;15.90;99.90
39103;DHT22;24847;48.218;16.414;2022-10-04T15:08:33;16.20;99.90
39103;DHT22;24847;48.218;16.414;2022-10-04T15:13:54;16.20;99.90
39103;DHT22;24847;48.218;16.414;2022-10-04T15:19:04;16.10;99.90
39103;DHT22;24847;48.218;16.414;2022-10-04T15:24:25;16.20;99.90
39103;DHT22;24847;48.218;16.414;2022-10-04T15:29:31;16.10;99.90
39103;DHT22;24847;48.218;16.414;2022-10-04T15:34:44;16.10;99.90
39103;DHT22;24847;48.218;16.414;2022-10-04T15:45:56;16.00;99.90
39103;DHT22;24847;48.218;16.414;2022-10-04T15:52:00;16.00;99.90
39103;DHT22;24847;48.218;16.414;2022-10-04T15:57:25;16.00;99.90
39103;DHT22;24847;48.218;16.414;2022-10-04T16:02:50;16.00;99.90
39103;DHT22;24847;48.218;16.414;2022-10-04T16:08:21;15.90;99.90
39103;DHT22;24847;48.218;16.414;2022-10-04T16:13:47;15.90;99.90
39103;DHT22;24847;48.218;16.414;2022-10-04T16:19:10;15.90;99.90
39103;DHT22;24847;48.218;16.414;2022-10-04T16:24:38;15.80;99.90
39103;DHT22;24847;48.218;16.414;2022-10-04T16:29:56;15.90;99.90
39103;DHT22;24847;48.218;16.414;2022-10-04T16:35:06;15.70;99.90
39103;DHT22;24847;48.218;16.414;2022-10-04T16:40:26;15.50;99.90
39103;DHT22;24847;48.218;16.414;2022-10-04T16:45:41;15.40;99.90
39103;DHT22;24847;48.218;16.414;2022-10-04T16:51:05;15.40;99.90
39103;DHT22;24847;48.218;16.414;2022-10-04T16:57:17;15.40;99.90
39103;DHT22;24847;48.218;16.414;2022-10-04T17:02:41;15.40;99.90
39103;DHT22;24847;48.218;16.414;2022-10-04T17:08:15;15.30;99.90
39103;DHT22;24847;48.218;16.414;2022-10-04T17:13:31;15.30;99.90
39103;DHT22;24847;48.218;16.414;2022-10-04T17:18:47;15.20;99.90
39103;DHT22;24847;48.218;16.414;2022-10-04T17:24:09;15.10;99.90
39103;DHT22;24847;48.218;16.414;2022-10-04T17:29:35;15.10;99.90
39103;DHT22;24847;48.218;16.414;2022-10-04T17:34:55;15.00;99.90
39103;DHT22;24847;48.218;16.414;2022-10-04T17:40:30;14.90;99.90
39103;DHT22;24847;48.218;16.414;2022-10-04T17:45:43;14.80;99.90
39103;DHT22;24847;48.218;16.414;2022-10-04T17:50:58;14.80;99.90
39103;DHT22;24847;48.218;16.414;2022-10-04T17:56:26;14.60;99.90
39103;DHT22;24847;48.218;16.414;2022-10-04T18:01:35;14.60;99.90
39103;DHT22;24847;48.218;16.414;2022-10-04T18:06:48;14.50;99.90
39103;DHT22;24847;48.218;16.414;2022-10-04T18:11:54;14.50;99.90
39103;DHT22;24847;48.218;16.414;2022-10-04T18:17:01;14.40;99.90
39103;DHT22;24847;48.218;16.414;2022-10-04T18:22:13;14.40;99.90
39103;DHT22;24847;48.218;16.414;2022-10-04T18:27:18;14.20;99.90
39103;DHT22;24847;48.218;16.414;2022-10-04T18:32:33;13.90;99.90
39103;DHT22;24847;48.218;16.414;2022-10-04T18:37:39;14.10;99.90
39103;DHT22;24847;48.218;16.414;2022-10-04T18:42:48;14.10;99.90
39103;DHT22;24847;48.218;16.414;2022-10-04T18:47:54;14.00;99.90
39103;DHT22;24847;48.218;16.414;2022-10-04T18:53:35;14.00;99.90
39103;DHT22;24847;48.218;16.414;2022-10-04T18:59:00;13.80;99.90
39103;DHT22;24847;48.218;16.414;2022-10-04T19:04:36;13.80;99.90
39103;DHT22;24847;48.218;16.414;2022-10-04T19:10:16;13.60;99.90
39103;DHT22;24847;48.218;16.414;2022-10-04T19:15:39;13.60;99.90
39103;DHT22;24847;48.218;16.414;2022-10-04T19:20:46;13.40;99.90
39103;DHT22;24847;48.218;16.414;2022-10-04T19:25:57;13.60;99.90
39103;DHT22;24847;48.218;16.414;2022-10-04T19:31:11;13.50;99.90
39103;DHT22;24847;48.218;16.414;2022-10-04T19:36:26;13.40;99.90
39103;DHT22;24847;48.218;16.414;2022-10-04T19:41:46;13.00;99.90
39103;DHT22;24847;48.218;16.414;2022-10-04T19:46:57;12.60;99.90
39103;DHT22;24847;48.218;16.414;2022-10-04T19:52:17;12.70;99.90
39103;DHT22;24847;48.218;16.414;2022-10-04T19:57:34;12.90;99.90
39103;DHT22;24847;48.218;16.414;2022-10-04T20:02:39;13.00;99.90
39103;DHT22;24847;48.218;16.414;2022-10-04T20:07:47;13.00;99.90
39103;DHT22;24847;48.218;16.414;2022-10-04T20:13:16;13.10;99.90
39103;DHT22;24847;48.218;16.414;2022-10-04T20:24:17;12.80;99.90
39103;DHT22;24847;48.218;16.414;2022-10-04T20:30:02;12.80;99.90
39103;DHT22;24847;48.218;16.414;2022-10-04T20:35:09;12.70;99.90
39103;DHT22;24847;48.218;16.414;2022-10-04T20:40:42;12.70;99.90
39103;DHT22;24847;48.218;16.414;2022-10-04T20:45:47;12.70;99.90
39103;DHT22;24847;48.218;16.414;2022-10-04T20:50:50;12.60;99.90
39103;DHT22;24847;48.218;16.414;2022-10-04T20:56:08;12.50;99.90
39103;DHT22;24847;48.218;16.414;2022-10-04T21:01:21;12.50;99.90
39103;DHT22;24847;48.218;16.414;2022-10-04T21:06:51;12.50;99.90
39103;DHT22;24847;48.218;16.414;2022-10-04T21:11:55;12.50;99.90
39103;DHT22;24847;48.218;16.414;2022-10-04T21:17:00;12.30;99.90
39103;DHT22;24847;48.218;16.414;2022-10-04T21:22:04;12.50;99.90
39103;DHT22;24847;48.218;16.414;2022-10-04T21:27:08;12.60;99.90
39103;DHT22;24847;48.218;16.414;2022-10-04T21:32:13;12.50;99.90
39103;DHT22;24847;48.218;16.414;2022-10-04T21:37:15;12.40;99.90
39103;DHT22;24847;48.218;16.414;2022-10-04T21:42:18;12.40;99.90
39103;DHT22;24847;48.218;16.414;2022-10-04T21:47:22;12.40;99.90
39103;DHT22;24847;48.218;16.414;2022-10-04T21:52:24;12.30;99.90
39103;DHT22;24847;48.218;16.414;2022-10-04T21:57:26;12.30;99.90
39103;DHT22;24847;48.218;16.414;2022-10-04T22:02:30;12.30;99.90
39103;DHT22;24847;48.218;16.414;2022-10-04T22:07:32;12.20;99.90
39103;DHT22;24847;48.218;16.414;2022-10-04T22:12:35;12.20;99.90
39103;DHT22;24847;48.218;16.414;2022-10-04T22:17:38;12.20;99.90
39103;DHT22;24847;48.218;16.414;2022-10-04T22:22:41;12.20;99.90
39103;DHT22;24847;48.218;16.414;2022-10-04T22:27:43;12.00;99.90
39103;DHT22;24847;48.218;16.414;2022-10-04T22:32:48;11.70;99.90
39103;DHT22;24847;48.218;16.414;2022-10-04T22:37:51;11.90;99.90
39103;DHT22;24847;48.218;16.414;2022-10-04T22:42:54;11.70;99.90
39103;DHT22;24847;48.218;16.414;2022-10-04T22:48:00;11.40;99.90
39103;DHT22;24847;48.218;16.414;2022-10-04T22:53:11;11.40;99.90
39103;DHT22;24847;48.218;16.414;2022-10-04T22:58:17;11.20;99.90
39103;DHT22;24847;48.218;16.414;2022-10-04T23:03:26;11.20;99.90
39103;DHT22;24847;48.218;16.414;2022-10-04T23:08:30;11.60;99.90
39103;DHT22;24847;48.218;16.414;2022-10-04T23:13:33;11.60;99.90
39103;DHT22;24847;48.218;16.414;2022-10-04T23:18:37;11.60;99.90
39103;DHT22;24847;48.218;16.414;2022-10-04T23:23:39;11.60;99.90
39103;DHT22;24847;48.218;16.414;2022-10-04T23:28:41;11.30;99.90
39103;DHT22;24847;48.218;16.414;2022-10-04T23:33:45;10.70;99.90
39103;DHT22;24847;48.218;16.414;2022-10-04T23:38:49;10.60;99.90
39103;DHT22;24847;48.218;16.414;2022-10-04T23:43:54;10.60;99.90
39103;DHT22;24847;48.218;16.414;2022-10-04T23:48:58;10.50;99.90
39103;DHT22;24847;48.218;16.414;2022-10-04T23:54:00;10.40;99.90
39103;DHT22;24847;48.218;16.414;2022-10-04T23:59:03;10.40;99.90
